Time,TemperatureF,DewpointF,PressureIn,WindDirection,WindDirectionDegrees,WindSpeedMPH,WindSpeedGustMPH,Humidity,HourlyPrecipIn,Conditions,Clouds,dailyrainin,SoftwareType,DateUTC
2013-03-23 00:00:00,41.0,30.9,30.07,ESE,118,0.0,0.0,67,0.00,,---,0.00,VWS V14.00,2013-03-23 04:00:00,
2013-03-23 00:05:00,40.9,30.8,30.07,ESE,119,0.0,0.0,67,0.00,,---,0.00,VWS V14.00,2013-03-23 04:05:00,
2013-03-23 00:10:00,40.9,30.8,30.06,ESE,119,0.0,0.0,67,0.00,,---,0.00,VWS V14.00,2013-03-23 04:10:00,
2013-03-23 00:15:00,40.8,30.3,30.06,ESE,118,0.0,0.0,66,0.00,,---,0.00,VWS V14.00,2013-03-23 04:15:00,
2013-03-23 00:20:00,40.7,31.0,30.06,ESE,119,0.0,0.0,68,0.00,,---,0.00,VWS V14.00,2013-03-23 04:20:00,
2013-03-23 00:25:00,40.6,30.5,30.06,ESE,119,0.0,0.0,67,0.00,,---,0.00,VWS V14.00,2013-03-23 04:25:00,
2013-03-23 00:30:00,40.5,31.1,30.06,ESE,118,0.0,1.0,69,0.00,,---,0.00,VWS V14.00,2013-03-23 04:30:00,
2013-03-23 00:35:00,40.4,31.0,30.07,ESE,118,0.0,1.0,69,0.00,,---,0.00,VWS V14.00,2013-03-23 04:35:00,
2013-03-23 00:40:00,40.4,30.0,30.06,ESE,119,0.0,0.0,66,0.00,,---,0.00,VWS V14.00,2013-03-23 04:40:00,
2013-03-23 00:45:00,40.4,28.8,30.05,ESE,118,0.0,2.0,63,0.00,,---,0.00,VWS V14.00,2013-03-23 04:45:00,
2013-03-23 00:50:00,40.4,28.8,30.04,ESE,118,0.0,3.0,63,0.00,,---,0.00,VWS V14.00,2013-03-23 04:50:00,
2013-03-23 00:55:00,40.4,28.0,30.06,North,351,0.0,3.0,61,0.00,,---,0.00,VWS V14.00,2013-03-23 04:55:00,
2013-03-23 01:00:00,40.4,29.6,30.06,North,350,0.0,3.0,65,0.00,,---,0.00,VWS V14.00,2013-03-23 05:00:00,
2013-03-23 01:05:00,40.3,29.9,30.06,SW,214,0.0,3.0,66,0.00,,---,0.00,VWS V14.00,2013-03-23 05:05:00,
2013-03-23 01:10:00,40.1,28.9,30.04,SW,223,0.0,1.0,64,0.00,,---,0.00,VWS V14.00,2013-03-23 05:10:00,
2013-03-23 01:15:00,40.0,26.8,30.04,SW,228,0.0,2.0,59,0.00,,---,0.00,VWS V14.00,2013-03-23 05:15:00,
2013-03-23 01:20:00,40.0,26.8,30.03,WSW,254,0.0,2.0,59,0.00,,---,0.00,VWS V14.00,2013-03-23 05:20:00,
2013-03-23 01:25:00,40.1,26.5,30.03,WSW,254,0.0,2.0,58,0.00,,---,0.00,VWS V14.00,2013-03-23 05:25:00,
2013-03-23 01:30:00,40.1,26.9,30.03,WSW,253,0.0,2.0,59,0.00,,---,0.00,VWS V14.00,2013-03-23 05:30:00,
2013-03-23 01:35:00,40.1,26.5,30.03,WSW,254,0.0,2.0,58,0.00,,---,0.00,VWS V14.00,2013-03-23 05:35:00,
2013-03-23 01:40:00,40.2,28.2,30.03,WSW,253,0.0,0.0,62,0.00,,---,0.00,VWS V14.00,2013-03-23 05:40:00,
2013-03-23 01:45:00,40.2,26.6,30.04,WSW,256,0.0,0.0,58,0.00,,---,0.00,VWS V14.00,2013-03-23 05:45:00,
2013-03-23 01:50:00,40.2,26.6,30.04,WSW,256,0.0,0.0,58,0.00,,---,0.00,VWS V14.00,2013-03-23 05:50:00,
2013-03-23 01:55:00,40.2,27.8,30.03,WSW,256,0.0,1.0,61,0.00,,---,0.00,VWS V14.00,2013-03-23 05:55:00,
2013-03-23 02:00:00,40.2,26.6,30.04,WSW,256,0.0,1.0,58,0.00,,---,0.00,VWS V14.00,2013-03-23 06:00:00,
2013-03-23 02:05:00,40.2,27.4,30.03,WSW,258,0.0,2.0,60,0.00,,---,0.00,VWS V14.00,2013-03-23 06:05:00,
2013-03-23 02:10:00,40.2,26.6,30.03,WSW,257,0.0,0.0,58,0.00,,---,0.00,VWS V14.00,2013-03-23 06:10:00,
2013-03-23 02:15:00,40.3,26.7,30.03,WSW,257,0.0,1.0,58,0.00,,---,0.00,VWS V14.00,2013-03-23 06:15:00,
2013-03-23 02:20:00,40.3,26.7,30.03,WSW,257,0.0,1.0,58,0.00,,---,0.00,VWS V14.00,2013-03-23 06:20:00,
2013-03-23 02:25:00,40.3,26.7,30.03,WSW,257,0.0,1.0,58,0.00,,---,0.00,VWS V14.00,2013-03-23 06:25:00,
2013-03-23 02:30:00,40.3,26.7,30.03,WSW,258,0.0,2.0,58,0.00,,---,0.00,VWS V14.00,2013-03-23 06:30:00,
2013-03-23 02:35:00,40.4,27.2,30.03,WSW,258,0.0,2.0,59,0.00,,---,0.00,VWS V14.00,2013-03-23 06:35:00,
2013-03-23 02:40:00,40.4,27.6,30.03,WSW,257,0.0,0.0,60,0.00,,---,0.00,VWS V14.00,2013-03-23 06:40:00,
2013-03-23 02:45:00,40.4,27.2,30.02,WSW,258,0.0,0.0,59,0.00,,---,0.00,VWS V14.00,2013-03-23 06:45:00,
2013-03-23 02:50:00,40.4,27.6,30.02,WSW,257,0.0,0.0,60,0.00,,---,0.00,VWS V14.00,2013-03-23 06:50:00,
2013-03-23 02:55:00,40.5,28.5,30.02,WSW,257,0.0,0.0,62,0.00,,---,0.00,VWS V14.00,2013-03-23 06:55:00,
2013-03-23 03:00:00,40.5,28.9,30.02,WSW,258,0.0,0.0,63,0.00,,---,0.00,VWS V14.00,2013-03-23 07:00:00,
2013-03-23 03:05:00,40.4,28.4,30.03,WSW,258,0.0,0.0,62,0.00,,---,0.00,VWS V14.00,2013-03-23 07:05:00,
2013-03-23 03:10:00,40.3,29.1,30.02,WSW,258,0.0,0.0,64,0.00,,---,0.00,VWS V14.00,2013-03-23 07:10:00,
2013-03-23 03:15:00,40.2,29.0,30.02,WSW,258,0.0,0.0,64,0.00,,---,0.00,VWS V14.00,2013-03-23 07:15:00,
2013-03-23 03:20:00,40.1,29.7,30.01,WSW,257,0.0,0.0,66,0.00,,---,0.00,VWS V14.00,2013-03-23 07:20:00,
2013-03-23 03:25:00,40.1,30.0,30.01,WSW,258,0.0,0.0,67,0.00,,---,0.00,VWS V14.00,2013-03-23 07:25:00,
2013-03-23 03:30:00,39.8,30.1,30.00,ENE,57,0.0,3.0,68,0.00,,---,0.00,VWS V14.00,2013-03-23 07:30:00,
2013-03-23 03:35:00,39.7,30.7,30.02,ENE,57,0.0,3.0,70,0.00,,---,0.00,VWS V14.00,2013-03-23 07:35:00,
2013-03-23 03:40:00,39.7,30.7,30.02,ENE,57,0.0,0.0,70,0.00,,---,0.00,VWS V14.00,2013-03-23 07:40:00,
2013-03-23 03:45:00,39.6,31.0,30.02,ENE,61,0.0,1.0,71,0.00,,---,0.00,VWS V14.00,2013-03-23 07:45:00,
2013-03-23 03:50:00,39.4,31.8,30.02,ENE,60,0.0,1.0,74,0.00,,---,0.00,VWS V14.00,2013-03-23 07:50:00,
2013-03-23 03:55:00,39.3,32.4,30.02,ENE,61,0.0,1.0,76,0.00,,---,0.00,VWS V14.00,2013-03-23 07:55:00,
2013-03-23 04:00:00,39.1,32.8,30.01,ENE,61,0.0,1.0,78,0.00,,---,0.00,VWS V14.00,2013-03-23 08:00:00,
2013-03-23 04:05:00,39.0,33.4,30.01,ENE,60,0.0,1.0,80,0.00,,---,0.00,VWS V14.00,2013-03-23 08:05:00,
2013-03-23 04:10:00,38.9,33.6,30.00,ENE,61,0.0,0.0,81,0.00,,---,0.00,VWS V14.00,2013-03-23 08:10:00,
2013-03-23 04:15:00,38.8,33.8,30.00,ENE,61,0.0,0.0,82,0.00,,---,0.00,VWS V14.00,2013-03-23 08:15:00,
2013-03-23 04:20:00,38.7,33.4,30.00,ENE,61,0.0,1.0,81,0.00,,---,0.00,VWS V14.00,2013-03-23 08:20:00,
2013-03-23 04:25:00,38.4,32.8,30.00,ENE,60,0.0,1.0,80,0.00,,---,0.00,VWS V14.00,2013-03-23 08:25:00,
2013-03-23 04:30:00,38.3,32.7,30.01,ENE,61,0.0,1.0,80,0.00,,---,0.00,VWS V14.00,2013-03-23 08:30:00,
2013-03-23 04:35:00,38.3,33.3,30.00,ENE,60,0.0,1.0,82,0.00,,---,0.00,VWS V14.00,2013-03-23 08:35:00,
2013-03-23 04:40:00,38.3,33.3,30.00,ENE,61,0.0,0.0,82,0.00,,---,0.00,VWS V14.00,2013-03-23 08:40:00,
2013-03-23 04:45:00,38.2,32.6,30.01,ENE,61,0.0,0.0,80,0.00,,---,0.00,VWS V14.00,2013-03-23 08:45:00,
2013-03-23 04:50:00,38.2,32.6,30.00,ENE,61,0.0,0.0,80,0.00,,---,0.00,VWS V14.00,2013-03-23 08:50:00,
2013-03-23 04:55:00,38.1,32.5,30.00,ENE,61,0.0,0.0,80,0.00,,---,0.00,VWS V14.00,2013-03-23 08:55:00,
2013-03-23 05:00:00,38.1,32.5,30.00,ENE,60,0.0,0.0,80,0.00,,---,0.00,VWS V14.00,2013-03-23 09:00:00,
2013-03-23 05:05:00,38.1,33.1,30.00,ENE,61,0.0,0.0,82,0.00,,---,0.00,VWS V14.00,2013-03-23 09:05:00,
2013-03-23 05:10:00,38.1,33.1,29.99,ENE,61,0.0,0.0,82,0.00,,---,0.00,VWS V14.00,2013-03-23 09:10:00,
2013-03-23 05:15:00,38.0,33.0,29.99,ENE,60,0.0,0.0,82,0.00,,---,0.00,VWS V14.00,2013-03-23 09:15:00,
2013-03-23 05:20:00,37.9,33.2,29.99,ENE,61,0.0,0.0,83,0.00,,---,0.00,VWS V14.00,2013-03-23 09:20:00,
2013-03-23 05:25:00,37.8,33.1,29.99,ENE,61,0.0,0.0,83,0.00,,---,0.00,VWS V14.00,2013-03-23 09:25:00,
2013-03-23 05:30:00,37.8,32.8,29.99,ENE,61,0.0,0.0,82,0.00,,---,0.00,VWS V14.00,2013-03-23 09:30:00,
2013-03-23 05:35:00,37.8,33.1,30.00,ENE,60,0.0,0.0,83,0.00,,---,0.00,VWS V14.00,2013-03-23 09:35:00,
2013-03-23 05:40:00,37.8,33.1,29.99,ENE,60,0.0,0.0,83,0.00,,---,0.00,VWS V14.00,2013-03-23 09:40:00,
2013-03-23 05:45:00,37.8,33.4,29.99,ENE,61,0.0,0.0,84,0.00,,---,0.00,VWS V14.00,2013-03-23 09:45:00,
2013-03-23 05:50:00,37.7,33.3,29.99,ENE,61,0.0,0.0,84,0.01,,---,0.01,VWS V14.00,2013-03-23 09:50:00,
2013-03-23 05:55:00,37.6,33.5,30.00,ENE,60,0.0,1.0,85,0.01,,---,0.01,VWS V14.00,2013-03-23 09:55:00,
2013-03-23 06:00:00,37.6,33.5,30.01,ENE,61,0.0,1.0,85,0.02,,---,0.02,VWS V14.00,2013-03-23 10:00:00,
2013-03-23 06:05:00,37.6,33.8,30.01,ENE,61,0.0,1.0,86,0.03,,---,0.03,VWS V14.00,2013-03-23 10:05:00,
2013-03-23 06:10:00,37.5,34.0,30.01,ENE,60,1.0,1.0,87,0.05,,---,0.05,VWS V14.00,2013-03-23 10:10:00,
2013-03-23 06:15:00,37.2,33.7,30.01,NW,324,0.0,3.0,87,0.05,,---,0.05,VWS V14.00,2013-03-23 10:15:00,
2013-03-23 06:20:00,36.9,33.4,30.01,NW,324,0.0,3.0,87,0.06,,---,0.06,VWS V14.00,2013-03-23 10:20:00,
2013-03-23 06:25:00,36.7,33.5,30.01,NW,324,0.0,3.0,88,0.06,,---,0.06,VWS V14.00,2013-03-23 10:25:00,
2013-03-23 06:30:00,36.8,33.9,30.01,NW,323,0.0,3.0,89,0.06,,---,0.06,VWS V14.00,2013-03-23 10:30:00,
2013-03-23 06:35:00,36.6,33.7,30.01,ENE,65,0.0,6.0,89,0.06,,---,0.06,VWS V14.00,2013-03-23 10:35:00,
2013-03-23 06:40:00,36.5,33.8,30.02,East,86,0.0,1.0,90,0.06,,---,0.06,VWS V14.00,2013-03-23 10:40:00,
2013-03-23 06:45:00,36.4,33.8,30.02,East,86,0.0,1.0,90,0.06,,---,0.06,VWS V14.00,2013-03-23 10:45:00,
2013-03-23 06:50:00,36.3,33.7,30.02,East,86,1.0,2.0,90,0.07,,---,0.07,VWS V14.00,2013-03-23 10:50:00,
2013-03-23 06:55:00,36.2,33.8,30.02,East,86,0.0,2.0,91,0.07,,---,0.07,VWS V14.00,2013-03-23 10:55:00,
2013-03-23 07:00:00,36.1,33.7,30.03,East,86,0.0,2.0,91,0.07,,---,0.07,VWS V14.00,2013-03-23 11:00:00,
2013-03-23 07:05:00,36.1,33.7,30.03,East,86,0.0,2.0,91,0.07,,---,0.07,VWS V14.00,2013-03-23 11:05:00,
2013-03-23 07:10:00,36.1,33.7,30.03,East,86,0.0,0.0,91,0.03,,---,0.07,VWS V14.00,2013-03-23 11:10:00,
2013-03-23 07:15:00,36.1,34.0,30.03,East,86,0.0,0.0,92,0.03,,---,0.07,VWS V14.00,2013-03-23 11:15:00,
2013-03-23 07:20:00,36.1,34.0,30.03,East,86,0.0,2.0,92,0.03,,---,0.07,VWS V14.00,2013-03-23 11:20:00,
2013-03-23 07:25:00,36.1,34.0,30.03,East,86,0.0,2.0,92,0.03,,---,0.07,VWS V14.00,2013-03-23 11:25:00,
2013-03-23 07:30:00,36.0,33.9,30.03,East,86,0.0,2.0,92,0.03,,---,0.07,VWS V14.00,2013-03-23 11:30:00,
2013-03-23 07:35:00,36.0,33.9,30.03,East,86,0.0,2.0,92,0.03,,---,0.07,VWS V14.00,2013-03-23 11:35:00,
2013-03-23 07:40:00,36.0,33.9,30.04,East,86,0.0,0.0,92,0.01,,---,0.07,VWS V14.00,2013-03-23 11:40:00,
2013-03-23 07:45:00,36.1,34.3,30.04,East,86,0.0,0.0,93,0.01,,---,0.07,VWS V14.00,2013-03-23 11:45:00,
2013-03-23 07:50:00,36.1,34.3,30.04,East,86,0.0,0.0,93,0.01,,---,0.07,VWS V14.00,2013-03-23 11:50:00,
2013-03-23 07:55:00,36.2,34.4,30.04,East,86,0.0,0.0,93,0.01,,---,0.07,VWS V14.00,2013-03-23 11:55:00,
2013-03-23 08:00:00,36.3,34.5,30.04,East,86,0.0,0.0,93,0.01,,---,0.07,VWS V14.00,2013-03-23 12:00:00,
2013-03-23 08:05:00,36.3,34.5,30.05,East,86,0.0,0.0,93,0.01,,---,0.07,VWS V14.00,2013-03-23 12:05:00,
2013-03-23 08:10:00,36.3,34.5,30.05,East,86,0.0,0.0,93,0.00,,---,0.07,VWS V14.00,2013-03-23 12:10:00,
2013-03-23 08:15:00,36.4,34.6,30.05,East,86,0.0,0.0,93,0.00,,---,0.07,VWS V14.00,2013-03-23 12:15:00,
2013-03-23 08:19:00,36.4,34.6,30.05,East,86,0.0,0.0,93,0.00,,---,0.07,VWS V14.00,2013-03-23 12:19:00,
2013-03-23 08:24:00,36.4,34.6,30.05,East,86,0.0,0.0,93,0.00,,---,0.07,VWS V14.00,2013-03-23 12:24:00,
2013-03-23 08:29:00,36.4,34.6,30.04,East,86,0.0,3.0,93,0.00,,---,0.07,VWS V14.00,2013-03-23 12:29:00,
2013-03-23 08:34:00,36.4,34.6,30.04,East,86,0.0,3.0,93,0.00,,---,0.07,VWS V14.00,2013-03-23 12:34:00,
2013-03-23 08:39:00,36.4,34.6,30.05,East,86,0.0,0.0,93,0.00,,---,0.07,VWS V14.00,2013-03-23 12:39:00,
2013-03-23 08:44:00,36.5,34.9,30.04,East,86,0.0,0.0,94,0.00,,---,0.07,VWS V14.00,2013-03-23 12:44:00,
2013-03-23 08:49:00,36.6,35.0,30.05,East,86,0.0,0.0,94,0.00,,---,0.07,VWS V14.00,2013-03-23 12:49:00,
2013-03-23 08:54:00,36.7,35.1,30.05,East,86,0.0,0.0,94,0.00,,---,0.07,VWS V14.00,2013-03-23 12:54:00,
2013-03-23 08:59:00,36.8,35.2,30.05,East,86,0.0,0.0,94,0.00,,---,0.07,VWS V14.00,2013-03-23 12:59:00,
2013-03-23 09:04:00,36.8,35.2,30.05,North,9,0.0,3.0,94,0.00,,---,0.07,VWS V14.00,2013-03-23 13:04:00,
2013-03-23 09:09:00,36.8,35.2,30.05,North,9,0.0,2.0,94,0.00,,---,0.07,VWS V14.00,2013-03-23 13:09:00,
2013-03-23 09:14:00,36.9,35.3,30.05,NNW,333,0.0,2.0,94,0.00,,---,0.07,VWS V14.00,2013-03-23 13:14:00,
2013-03-23 09:19:00,37.0,35.4,30.05,NNW,347,0.0,3.0,94,0.00,,---,0.07,VWS V14.00,2013-03-23 13:19:00,
2013-03-23 09:24:00,37.1,35.5,30.05,NNW,347,0.0,3.0,94,0.00,,---,0.07,VWS V14.00,2013-03-23 13:24:00,
2013-03-23 09:29:00,37.2,35.6,30.06,NW,317,0.0,3.0,94,0.00,,---,0.07,VWS V14.00,2013-03-23 13:29:00,
2013-03-23 09:34:00,37.1,35.5,30.06,NW,317,0.0,3.0,94,0.00,,---,0.07,VWS V14.00,2013-03-23 13:34:00,
2013-03-23 09:39:00,37.1,35.5,30.06,NW,317,0.0,0.0,94,0.00,,---,0.07,VWS V14.00,2013-03-23 13:39:00,
2013-03-23 09:44:00,37.0,35.2,30.05,NW,317,0.0,0.0,93,0.00,,---,0.07,VWS V14.00,2013-03-23 13:44:00,
2013-03-23 09:49:00,37.0,35.4,30.05,NW,317,0.0,0.0,94,0.00,,---,0.07,VWS V14.00,2013-03-23 13:49:00,
2013-03-23 09:54:00,37.1,35.5,30.05,NW,317,0.0,0.0,94,0.00,,---,0.07,VWS V14.00,2013-03-23 13:54:00,
2013-03-23 09:59:00,37.1,35.5,30.05,NW,317,0.0,0.0,94,0.00,,---,0.07,VWS V14.00,2013-03-23 13:59:00,
2013-03-23 10:04:00,37.3,35.7,30.04,NW,317,0.0,0.0,94,0.00,,---,0.07,VWS V14.00,2013-03-23 14:04:00,
2013-03-23 10:09:00,37.4,35.8,30.04,NW,317,0.0,0.0,94,0.00,,---,0.07,VWS V14.00,2013-03-23 14:09:00,
2013-03-23 10:14:00,37.4,35.8,30.04,NW,320,0.0,2.0,94,0.00,,---,0.07,VWS V14.00,2013-03-23 14:14:00,
2013-03-23 10:19:00,37.5,35.9,30.04,NW,317,1.0,2.0,94,0.00,,---,0.07,VWS V14.00,2013-03-23 14:19:00,
2013-03-23 10:24:00,37.5,35.9,30.04,NW,317,0.0,2.0,94,0.00,,---,0.07,VWS V14.00,2013-03-23 14:24:00,
2013-03-23 10:29:00,37.5,35.9,30.04,NW,317,0.0,2.0,94,0.00,,---,0.07,VWS V14.00,2013-03-23 14:29:00,
2013-03-23 10:34:00,37.5,35.9,30.04,NW,317,0.0,2.0,94,0.00,,---,0.07,VWS V14.00,2013-03-23 14:34:00,
2013-03-23 10:39:00,37.5,35.9,30.04,NW,317,0.0,0.0,94,0.00,,---,0.07,VWS V14.00,2013-03-23 14:39:00,
2013-03-23 10:44:00,37.5,35.9,30.04,NW,317,0.0,1.0,94,0.00,,---,0.07,VWS V14.00,2013-03-23 14:44:00,
2013-03-23 10:49:00,37.4,35.8,30.05,NW,318,0.0,1.0,94,0.00,,---,0.07,VWS V14.00,2013-03-23 14:49:00,
2013-03-23 10:54:00,37.3,35.7,30.05,NNW,339,0.0,2.0,94,0.00,,---,0.07,VWS V14.00,2013-03-23 14:54:00,
2013-03-23 10:59:00,37.1,35.5,30.05,NNW,338,1.0,2.0,94,0.00,,---,0.07,VWS V14.00,2013-03-23 14:59:00,
2013-03-23 11:04:00,37.1,35.5,30.05,NNW,339,0.0,2.0,94,0.00,,---,0.07,VWS V14.00,2013-03-23 15:04:00,
2013-03-23 11:10:00,37.2,35.6,30.05,NNW,339,0.0,0.0,94,0.00,,---,0.07,VWS V14.00,2013-03-23 15:10:00,
2013-03-23 11:15:00,37.4,35.8,30.05,NNW,338,0.0,0.0,94,0.00,,---,0.07,VWS V14.00,2013-03-23 15:15:00,
2013-03-23 11:20:00,37.8,36.2,30.05,NNW,339,0.0,0.0,94,0.00,,---,0.07,VWS V14.00,2013-03-23 15:20:00,
2013-03-23 11:25:00,38.1,36.5,30.05,NNW,339,0.0,0.0,94,0.00,,---,0.07,VWS V14.00,2013-03-23 15:25:00,
2013-03-23 11:30:00,38.3,37.0,30.05,NNW,339,0.0,1.0,95,0.00,,---,0.07,VWS V14.00,2013-03-23 15:30:00,
2013-03-23 11:35:00,38.6,37.3,30.04,NNW,338,0.0,1.0,95,0.00,,---,0.07,VWS V14.00,2013-03-23 15:35:00,
2013-03-23 11:40:00,38.8,37.2,30.04,NNW,339,0.0,0.0,94,0.00,,---,0.07,VWS V14.00,2013-03-23 15:40:00,
2013-03-23 11:45:00,39.0,37.4,30.04,NNW,339,2.0,2.0,94,0.00,,---,0.07,VWS V14.00,2013-03-23 15:45:00,
2013-03-23 11:50:00,39.0,37.4,30.04,NNW,338,0.0,2.0,94,0.00,,---,0.07,VWS V14.00,2013-03-23 15:50:00,
2013-03-23 11:55:00,39.0,37.4,30.04,NNW,339,0.0,2.0,94,0.00,,---,0.07,VWS V14.00,2013-03-23 15:55:00,
2013-03-23 12:00:00,39.1,37.5,30.04,NNW,338,0.0,2.0,94,0.00,,---,0.07,VWS V14.00,2013-03-23 16:00:00,
2013-03-23 12:05:00,39.3,37.7,30.04,NNW,338,0.0,2.0,94,0.00,,---,0.07,VWS V14.00,2013-03-23 16:05:00,
2013-03-23 12:10:00,39.4,37.8,30.04,NNW,339,0.0,1.0,94,0.00,,---,0.07,VWS V14.00,2013-03-23 16:10:00,
2013-03-23 12:15:00,39.5,37.9,30.03,NNW,339,0.0,1.0,94,0.00,,---,0.07,VWS V14.00,2013-03-23 16:15:00,
2013-03-23 12:20:00,39.8,38.2,30.03,NNW,338,0.0,1.0,94,0.00,,---,0.07,VWS V14.00,2013-03-23 16:20:00,
2013-03-23 12:25:00,40.1,38.8,30.03,NNW,338,0.0,1.0,95,0.00,,---,0.07,VWS V14.00,2013-03-23 16:25:00,
2013-03-23 12:30:00,40.5,38.9,30.03,NNW,339,0.0,1.0,94,0.00,,---,0.07,VWS V14.00,2013-03-23 16:30:00,
2013-03-23 12:35:00,40.8,39.5,30.02,NNW,339,0.0,1.0,95,0.00,,---,0.07,VWS V14.00,2013-03-23 16:35:00,
2013-03-23 12:40:00,41.1,39.5,30.02,East,98,0.0,0.0,94,0.00,,---,0.07,VWS V14.00,2013-03-23 16:40:00,
2013-03-23 12:45:00,41.5,40.2,30.02,East,98,0.0,1.0,95,0.00,,---,0.07,VWS V14.00,2013-03-23 16:45:00,
2013-03-23 12:50:00,42.0,40.7,30.01,East,98,0.0,1.0,95,0.00,,---,0.07,VWS V14.00,2013-03-23 16:50:00,
2013-03-23 12:55:00,42.4,40.8,30.01,SE,132,0.0,1.0,94,0.00,,---,0.07,VWS V14.00,2013-03-23 16:55:00,
2013-03-23 13:00:00,42.6,40.7,30.00,SE,132,0.0,1.0,93,0.00,,---,0.07,VWS V14.00,2013-03-23 17:00:00,
2013-03-23 13:05:00,42.9,41.0,30.00,SE,130,0.0,3.0,93,0.00,,---,0.07,VWS V14.00,2013-03-23 17:05:00,
2013-03-23 13:10:00,43.0,40.8,30.00,ESE,120,1.0,3.0,92,0.00,,---,0.07,VWS V14.00,2013-03-23 17:10:00,
2013-03-23 13:15:00,43.2,41.0,30.00,East,101,1.0,3.0,92,0.00,,---,0.07,VWS V14.00,2013-03-23 17:15:00,
2013-03-23 13:20:00,43.5,41.0,29.99,ESE,123,2.0,3.0,91,0.00,,---,0.07,VWS V14.00,2013-03-23 17:20:00,
2013-03-23 13:25:00,43.6,41.2,29.99,ESE,104,2.0,3.0,91,0.00,,---,0.07,VWS V14.00,2013-03-23 17:25:00,
2013-03-23 13:30:00,43.9,41.5,29.99,ESE,104,0.0,3.0,91,0.00,,---,0.07,VWS V14.00,2013-03-23 17:30:00,
2013-03-23 13:35:00,44.1,41.4,29.99,ESE,103,2.0,3.0,90,0.00,,---,0.07,VWS V14.00,2013-03-23 17:35:00,
2013-03-23 13:40:00,44.1,41.4,29.99,ESE,103,0.0,1.0,90,0.00,,---,0.07,VWS V14.00,2013-03-23 17:40:00,
2013-03-23 13:45:00,44.3,41.6,29.99,ESE,103,0.0,4.0,90,0.00,,---,0.07,VWS V14.00,2013-03-23 17:45:00,
2013-03-23 13:50:00,44.7,41.7,29.99,ESE,103,1.0,4.0,89,0.00,,---,0.07,VWS V14.00,2013-03-23 17:50:00,
2013-03-23 13:55:00,45.0,42.0,29.99,ESE,102,3.0,4.0,89,0.00,,---,0.07,VWS V14.00,2013-03-23 17:55:00,
2013-03-23 14:00:00,45.0,41.7,29.99,ESE,103,0.0,4.0,88,0.00,,---,0.07,VWS V14.00,2013-03-23 18:00:00,
2013-03-23 14:05:00,45.1,41.8,29.98,NE,53,0.0,4.0,88,0.00,,---,0.07,VWS V14.00,2013-03-23 18:05:00,
2013-03-23 14:10:00,45.4,42.3,29.98,ENE,67,1.0,2.0,89,0.00,,---,0.07,VWS V14.00,2013-03-23 18:10:00,
2013-03-23 14:15:00,45.5,42.2,29.97,ENE,67,0.0,2.0,88,0.00,,---,0.07,VWS V14.00,2013-03-23 18:15:00,
2013-03-23 14:20:00,45.9,42.5,29.97,ESE,109,0.0,2.0,88,0.00,,---,0.07,VWS V14.00,2013-03-23 18:20:00,
2013-03-23 14:25:00,46.3,43.0,29.97,ESE,109,0.0,2.0,88,0.00,,---,0.07,VWS V14.00,2013-03-23 18:25:00,
2013-03-23 14:30:00,46.5,42.8,29.96,ESE,109,0.0,2.0,87,0.00,,---,0.07,VWS V14.00,2013-03-23 18:30:00,
2013-03-23 14:35:00,47.0,43.0,29.96,SE,138,0.0,2.0,86,0.00,,---,0.07,VWS V14.00,2013-03-23 18:35:00,
2013-03-23 14:40:00,47.7,44.3,29.95,SSE,147,0.0,2.0,88,0.00,,---,0.07,VWS V14.00,2013-03-23 18:40:00,
2013-03-23 14:45:00,47.8,43.2,29.95,East,87,1.0,6.0,84,0.00,,---,0.07,VWS V14.00,2013-03-23 18:45:00,
2013-03-23 14:50:00,47.9,43.3,29.95,East,87,0.0,6.0,84,0.00,,---,0.07,VWS V14.00,2013-03-23 18:50:00,
2013-03-23 14:55:00,48.3,44.0,29.95,SSE,148,0.0,6.0,85,0.00,,---,0.07,VWS V14.00,2013-03-23 18:55:00,
2013-03-23 15:00:00,48.7,44.1,29.95,SSE,148,0.0,6.0,84,0.00,,---,0.07,VWS V14.00,2013-03-23 19:00:00,
2013-03-23 15:05:00,49.0,44.1,29.94,West,259,1.0,6.0,83,0.00,,---,0.07,VWS V14.00,2013-03-23 19:05:00,
2013-03-23 15:10:00,49.2,44.0,29.94,SE,140,0.0,4.0,82,0.00,,---,0.07,VWS V14.00,2013-03-23 19:10:00,
2013-03-23 15:15:00,49.3,44.0,29.94,SSE,156,2.0,4.0,82,0.00,,---,0.07,VWS V14.00,2013-03-23 19:15:00,
2013-03-23 15:20:00,49.3,44.0,29.94,South,172,3.0,4.0,82,0.00,,---,0.07,VWS V14.00,2013-03-23 19:20:00,
2013-03-23 15:25:00,49.2,43.6,29.93,West,269,0.0,5.0,81,0.00,,---,0.07,VWS V14.00,2013-03-23 19:25:00,
2013-03-23 15:30:00,49.4,44.1,29.93,West,267,0.0,5.0,82,0.00,,---,0.07,VWS V14.00,2013-03-23 19:30:00,
2013-03-23 15:35:00,49.6,44.3,29.93,West,267,0.0,5.0,82,0.00,,---,0.07,VWS V14.00,2013-03-23 19:35:00,
2013-03-23 15:40:00,49.8,44.2,29.93,West,267,0.0,1.0,81,0.00,,---,0.07,VWS V14.00,2013-03-23 19:40:00,
2013-03-23 15:45:00,50.1,44.5,29.93,SSW,207,0.0,2.0,81,0.00,,---,0.07,VWS V14.00,2013-03-23 19:45:00,
2013-03-23 15:50:00,50.1,44.2,29.93,SW,214,0.0,2.0,80,0.00,,---,0.07,VWS V14.00,2013-03-23 19:50:00,
2013-03-23 15:55:00,50.1,44.5,29.93,SSW,213,0.0,3.0,81,0.00,,---,0.07,VWS V14.00,2013-03-23 19:55:00,
2013-03-23 16:00:00,50.2,44.6,29.93,SSW,213,0.0,3.0,81,0.00,,---,0.07,VWS V14.00,2013-03-23 20:00:00,
2013-03-23 16:05:00,50.5,44.9,29.91,SSW,213,0.0,3.0,81,0.00,,---,0.07,VWS V14.00,2013-03-23 20:05:00,
2013-03-23 16:10:00,51.0,45.7,29.92,SSW,213,1.0,1.0,82,0.00,,---,0.07,VWS V14.00,2013-03-23 20:10:00,
2013-03-23 16:15:00,51.3,45.0,29.92,SSE,157,0.0,2.0,79,0.00,,---,0.07,VWS V14.00,2013-03-23 20:15:00,
2013-03-23 16:20:00,51.5,44.9,29.91,SSE,157,0.0,2.0,78,0.00,,---,0.07,VWS V14.00,2013-03-23 20:20:00,
2013-03-23 16:25:00,51.9,45.6,29.90,South,171,2.0,5.0,79,0.00,,---,0.07,VWS V14.00,2013-03-23 20:25:00,
2013-03-23 16:30:00,51.7,45.4,29.91,South,171,0.0,5.0,79,0.00,,---,0.07,VWS V14.00,2013-03-23 20:30:00,
2013-03-23 16:35:00,51.8,45.5,29.90,South,171,0.0,5.0,79,0.00,,---,0.07,VWS V14.00,2013-03-23 20:35:00,
2013-03-23 16:40:00,51.8,45.2,29.90,South,171,0.0,3.0,78,0.00,,---,0.07,VWS V14.00,2013-03-23 20:40:00,
2013-03-23 16:45:00,52.0,45.7,29.90,South,171,0.0,3.0,79,0.00,,---,0.07,VWS V14.00,2013-03-23 20:45:00,
2013-03-23 16:50:00,52.3,45.7,29.90,South,171,0.0,3.0,78,0.00,,---,0.07,VWS V14.00,2013-03-23 20:50:00,
2013-03-23 16:55:00,52.4,45.8,29.90,South,171,0.0,3.0,78,0.00,,---,0.07,VWS V14.00,2013-03-23 20:55:00,
2013-03-23 17:00:00,52.3,45.7,29.90,South,171,0.0,4.0,78,0.00,,---,0.07,VWS V14.00,2013-03-23 21:00:00,
2013-03-23 17:05:00,52.3,45.7,29.90,South,172,0.0,4.0,78,0.00,,---,0.07,VWS V14.00,2013-03-23 21:05:00,
2013-03-23 17:10:00,52.4,45.4,29.90,South,172,0.0,1.0,77,0.00,,---,0.07,VWS V14.00,2013-03-23 21:10:00,
2013-03-23 17:15:00,52.4,45.8,29.89,South,171,0.0,3.0,78,0.00,,---,0.07,VWS V14.00,2013-03-23 21:15:00,
2013-03-23 17:20:00,52.5,45.5,29.89,South,171,0.0,3.0,77,0.00,,---,0.07,VWS V14.00,2013-03-23 21:20:00,
2013-03-23 17:25:00,52.6,46.0,29.89,South,171,0.0,3.0,78,0.00,,---,0.07,VWS V14.00,2013-03-23 21:25:00,
2013-03-23 17:30:00,52.6,45.6,29.89,South,172,0.0,3.0,77,0.00,,---,0.07,VWS V14.00,2013-03-23 21:30:00,
2013-03-23 17:35:00,52.7,46.0,29.89,South,172,0.0,3.0,78,0.00,,---,0.07,VWS V14.00,2013-03-23 21:35:00,
2013-03-23 17:40:00,52.8,45.8,29.90,SSE,167,0.0,1.0,77,0.00,,---,0.07,VWS V14.00,2013-03-23 21:40:00,
2013-03-23 17:45:00,52.7,45.7,29.89,SSE,167,0.0,1.0,77,0.00,,---,0.07,VWS V14.00,2013-03-23 21:45:00,
2013-03-23 17:50:00,52.5,45.5,29.89,SSE,167,0.0,3.0,77,0.00,,---,0.07,VWS V14.00,2013-03-23 21:50:00,
2013-03-23 17:55:00,52.4,45.8,29.89,SSE,167,0.0,3.0,78,0.00,,---,0.07,VWS V14.00,2013-03-23 21:55:00,
2013-03-23 18:00:00,52.4,45.8,29.89,SSE,167,0.0,3.0,78,0.00,,---,0.07,VWS V14.00,2013-03-23 22:00:00,
2013-03-23 18:05:00,52.3,45.7,29.90,SSE,167,0.0,3.0,78,0.00,,---,0.07,VWS V14.00,2013-03-23 22:05:00,
2013-03-23 18:10:00,52.3,45.7,29.90,SSE,167,0.0,0.0,78,0.00,,---,0.07,VWS V14.00,2013-03-23 22:10:00,
2013-03-23 18:15:00,52.2,45.9,29.91,SSE,167,0.0,0.0,79,0.00,,---,0.07,VWS V14.00,2013-03-23 22:15:00,
2013-03-23 18:20:00,52.2,45.9,29.90,SSE,167,1.0,1.0,79,0.00,,---,0.07,VWS V14.00,2013-03-23 22:20:00,
2013-03-23 18:25:00,52.1,45.8,29.90,SSE,167,0.0,2.0,79,0.00,,---,0.07,VWS V14.00,2013-03-23 22:25:00,
2013-03-23 18:30:00,51.9,45.6,29.89,SSE,167,0.0,2.0,79,0.00,,---,0.07,VWS V14.00,2013-03-23 22:30:00,
2013-03-23 18:35:00,51.7,45.4,29.90,SSE,167,0.0,2.0,79,0.00,,---,0.07,VWS V14.00,2013-03-23 22:35:00,
2013-03-23 18:40:00,51.7,45.7,29.90,SSE,167,0.0,0.0,80,0.00,,---,0.07,VWS V14.00,2013-03-23 22:40:00,
2013-03-23 18:45:00,51.7,45.7,29.90,SSE,167,0.0,0.0,80,0.00,,---,0.07,VWS V14.00,2013-03-23 22:45:00,
2013-03-23 18:50:00,51.6,45.6,29.91,SSE,167,0.0,0.0,80,0.00,,---,0.07,VWS V14.00,2013-03-23 22:50:00,
2013-03-23 18:55:00,51.7,46.1,29.90,SSE,167,0.0,0.0,81,0.00,,---,0.07,VWS V14.00,2013-03-23 22:55:00,
2013-03-23 19:00:00,51.7,45.7,29.90,SSE,167,0.0,0.0,80,0.00,,---,0.07,VWS V14.00,2013-03-23 23:00:00,
2013-03-23 19:05:00,51.6,46.0,29.90,SSE,167,0.0,0.0,81,0.00,,---,0.07,VWS V14.00,2013-03-23 23:05:00,
2013-03-23 19:10:00,51.6,46.0,29.90,SSE,167,0.0,2.0,81,0.00,,---,0.07,VWS V14.00,2013-03-23 23:10:00,
2013-03-23 19:15:00,51.5,45.9,29.90,SSE,167,0.0,2.0,81,0.00,,---,0.07,VWS V14.00,2013-03-23 23:15:00,
2013-03-23 19:20:00,51.3,45.7,29.91,SSE,167,0.0,2.0,81,0.00,,---,0.07,VWS V14.00,2013-03-23 23:20:00,
2013-03-23 19:25:00,51.2,45.6,29.91,SSE,167,0.0,2.0,81,0.00,,---,0.07,VWS V14.00,2013-03-23 23:25:00,
2013-03-23 19:30:00,51.2,45.6,29.91,SSE,148,3.0,3.0,81,0.00,,---,0.07,VWS V14.00,2013-03-23 23:30:00,
2013-03-23 19:35:00,50.9,45.3,29.90,SSE,148,0.0,3.0,81,0.00,,---,0.07,VWS V14.00,2013-03-23 23:35:00,
2013-03-23 19:40:00,50.8,45.5,29.90,SSE,148,0.0,0.0,82,0.00,,---,0.07,VWS V14.00,2013-03-23 23:40:00,
2013-03-23 19:45:00,50.6,45.3,29.90,SSE,148,0.0,2.0,82,0.00,,---,0.07,VWS V14.00,2013-03-23 23:45:00,
2013-03-23 19:50:00,50.5,45.2,29.90,SSE,148,0.0,2.0,82,0.00,,---,0.07,VWS V14.00,2013-03-23 23:50:00,
2013-03-23 19:55:00,50.3,45.3,29.89,SSE,148,0.0,2.0,83,0.00,,---,0.07,VWS V14.00,2013-03-23 23:55:00,
2013-03-23 20:00:00,50.1,45.2,29.90,SSE,148,0.0,2.0,83,0.00,,---,0.07,VWS V14.00,2013-03-24 00:00:00,
2013-03-23 20:05:00,50.0,45.0,29.90,SSE,148,0.0,2.0,83,0.00,,---,0.07,VWS V14.00,2013-03-24 00:05:00,
2013-03-23 20:10:00,49.9,45.3,29.89,SSE,148,0.0,0.0,84,0.00,,---,0.07,VWS V14.00,2013-03-24 00:10:00,
2013-03-23 20:15:00,49.9,45.3,29.89,SSE,148,0.0,0.0,84,0.00,,---,0.07,VWS V14.00,2013-03-24 00:15:00,
2013-03-23 20:20:00,49.8,45.2,29.89,SSE,148,0.0,0.0,84,0.00,,---,0.07,VWS V14.00,2013-03-24 00:20:00,
2013-03-23 20:25:00,49.7,45.1,29.89,SSE,148,0.0,0.0,84,0.00,,---,0.07,VWS V14.00,2013-03-24 00:25:00,
2013-03-23 20:30:00,49.6,45.0,29.88,SSE,148,0.0,0.0,84,0.00,,---,0.07,VWS V14.00,2013-03-24 00:30:00,
2013-03-23 20:35:00,49.4,44.8,29.87,SSE,148,0.0,0.0,84,0.00,,---,0.07,VWS V14.00,2013-03-24 00:35:00,
2013-03-23 20:40:00,49.4,44.8,29.88,SSE,148,0.0,0.0,84,0.00,,---,0.07,VWS V14.00,2013-03-24 00:40:00,
2013-03-23 20:45:00,49.2,44.6,29.88,SSE,148,0.0,0.0,84,0.00,,---,0.07,VWS V14.00,2013-03-24 00:45:00,
2013-03-23 20:50:00,49.0,44.4,29.89,SSE,148,0.0,0.0,84,0.00,,---,0.07,VWS V14.00,2013-03-24 00:50:00,
2013-03-23 20:55:00,48.8,44.5,29.89,SSE,148,0.0,0.0,85,0.00,,---,0.07,VWS V14.00,2013-03-24 00:55:00,
2013-03-23 21:00:00,48.7,44.4,29.88,SSE,148,0.0,0.0,85,0.00,,---,0.07,VWS V14.00,2013-03-24 01:00:00,
2013-03-23 21:05:00,48.6,44.3,29.88,SSE,148,0.0,0.0,85,0.00,,---,0.07,VWS V14.00,2013-03-24 01:05:00,
2013-03-23 21:10:00,48.6,44.6,29.87,SSE,148,0.0,0.0,86,0.00,,---,0.07,VWS V14.00,2013-03-24 01:10:00,
2013-03-23 21:15:00,48.5,44.5,29.87,SSE,148,0.0,0.0,86,0.00,,---,0.07,VWS V14.00,2013-03-24 01:15:00,
2013-03-23 21:20:00,48.4,44.1,29.87,SSE,148,0.0,0.0,85,0.00,,---,0.07,VWS V14.00,2013-03-24 01:20:00,
2013-03-23 21:25:00,48.4,44.4,29.88,SSE,148,0.0,0.0,86,0.00,,---,0.07,VWS V14.00,2013-03-24 01:25:00,
2013-03-23 21:30:00,48.3,44.3,29.87,SSE,148,0.0,2.0,86,0.00,,---,0.07,VWS V14.00,2013-03-24 01:30:00,
2013-03-23 21:35:00,48.4,44.4,29.87,NNW,344,0.0,4.0,86,0.00,,---,0.07,VWS V14.00,2013-03-24 01:35:00,
2013-03-23 21:40:00,48.5,44.2,29.86,WNW,288,0.0,4.0,85,0.00,,---,0.07,VWS V14.00,2013-03-24 01:40:00,
2013-03-23 21:45:00,48.7,44.4,29.86,WNW,294,2.0,4.0,85,0.00,,---,0.07,VWS V14.00,2013-03-24 01:45:00,
2013-03-23 21:50:00,48.7,44.4,29.86,WNW,294,1.0,4.0,85,0.00,,---,0.07,VWS V14.00,2013-03-24 01:50:00,
2013-03-23 21:55:00,48.8,44.5,29.86,WNW,294,0.0,4.0,85,0.00,,---,0.07,VWS V14.00,2013-03-24 01:55:00,
2013-03-23 22:00:00,48.7,44.1,29.87,WNW,294,0.0,4.0,84,0.00,,---,0.07,VWS V14.00,2013-03-24 02:00:00,
2013-03-23 22:05:00,48.6,44.0,29.88,WNW,294,0.0,4.0,84,0.00,,---,0.07,VWS V14.00,2013-03-24 02:05:00,
2013-03-23 22:10:00,48.4,44.1,29.86,WNW,294,0.0,1.0,85,0.00,,---,0.07,VWS V14.00,2013-03-24 02:10:00,
2013-03-23 22:15:00,48.2,43.9,29.86,WNW,294,0.0,1.0,85,0.00,,---,0.07,VWS V14.00,2013-03-24 02:15:00,
2013-03-23 22:20:00,48.1,44.1,29.86,WNW,294,0.0,1.0,86,0.00,,---,0.07,VWS V14.00,2013-03-24 02:20:00,
2013-03-23 22:25:00,47.9,43.9,29.86,WNW,294,0.0,1.0,86,0.00,,---,0.07,VWS V14.00,2013-03-24 02:25:00,
2013-03-23 22:30:00,47.8,44.1,29.85,WNW,298,3.0,3.0,87,0.00,,---,0.07,VWS V14.00,2013-03-24 02:30:00,
2013-03-23 22:35:00,47.8,44.1,29.84,NW,314,1.0,3.0,87,0.00,,---,0.07,VWS V14.00,2013-03-24 02:35:00,
2013-03-23 22:40:00,47.9,44.2,29.84,NW,314,0.0,0.0,87,0.00,,---,0.07,VWS V14.00,2013-03-24 02:40:00,
2013-03-23 22:45:00,47.9,44.2,29.81,NW,314,0.0,0.0,87,0.00,,---,0.07,VWS V14.00,2013-03-24 02:45:00,
2013-03-23 22:50:00,47.8,44.1,29.82,NW,314,0.0,2.0,87,0.00,,---,0.07,VWS V14.00,2013-03-24 02:50:00,
2013-03-23 22:55:00,47.7,44.0,29.82,North,355,0.0,2.0,87,0.00,,---,0.07,VWS V14.00,2013-03-24 02:55:00,
2013-03-23 23:00:00,47.4,43.7,29.83,WSW,251,1.0,4.0,87,0.00,,---,0.07,VWS V14.00,2013-03-24 03:00:00,
2013-03-23 23:05:00,47.0,43.3,29.84,WSW,251,0.0,4.0,87,0.00,,---,0.07,VWS V14.00,2013-03-24 03:05:00,
2013-03-23 23:10:00,46.9,43.8,29.83,North,355,4.0,7.0,89,0.00,,---,0.07,VWS V14.00,2013-03-24 03:10:00,
2013-03-23 23:15:00,47.1,44.3,29.83,West,277,0.0,7.0,90,0.00,,---,0.07,VWS V14.00,2013-03-24 03:15:00,
2013-03-23 23:20:00,47.1,44.0,29.83,West,276,0.0,7.0,89,0.00,,---,0.07,VWS V14.00,2013-03-24 03:20:00,
2013-03-23 23:25:00,46.9,43.8,29.83,West,276,0.0,7.0,89,0.00,,---,0.07,VWS V14.00,2013-03-24 03:25:00,
2013-03-23 23:30:00,46.8,43.7,29.83,West,276,0.0,7.0,89,0.00,,---,0.07,VWS V14.00,2013-03-24 03:30:00,
2013-03-23 23:35:00,46.7,43.6,29.83,West,277,0.0,7.0,89,0.00,,---,0.07,VWS V14.00,2013-03-24 03:35:00,
2013-03-23 23:40:00,46.5,43.4,29.83,West,276,0.0,1.0,89,0.00,,---,0.07,VWS V14.00,2013-03-24 03:40:00,
2013-03-23 23:45:00,46.4,43.6,29.84,West,277,2.0,2.0,90,0.00,,---,0.07,VWS V14.00,2013-03-24 03:45:00,
2013-03-23 23:50:00,46.5,44.0,29.83,West,277,0.0,3.0,91,0.00,,---,0.07,VWS V14.00,2013-03-24 03:50:00,
2013-03-23 23:55:00,46.6,44.1,29.83,SE,125,0.0,3.0,91,0.00,,---,0.07,VWS V14.00,2013-03-24 03:55:00,